createdAt,value
2022-12-15T00:02:14.370Z,79.30
2022-12-15T00:05:00.622Z,79.49
2022-12-15T00:07:46.592Z,79.15
2022-12-15T00:10:32.498Z,79.59
2022-12-15T00:13:18.500Z,79.37
2022-12-15T00:16:06.594Z,79.87
2022-12-15T00:18:53.259Z,79.34
2022-12-15T00:21:39.037Z,79.33
2022-12-15T00:24:25.400Z,79.15
2022-12-15T00:27:11.503Z,79.55
2022-12-15T00:29:57.243Z,79.27
2022-12-15T00:32:43.068Z,79.43
2022-12-15T00:35:29.093Z,79.40
2022-12-15T00:38:15.494Z,79.52
2022-12-15T00:40:42.775Z,79.37
2022-12-15T00:43:12.672Z,79.46
2022-12-15T00:45:58.890Z,79.37
2022-12-15T00:48:26.437Z,79.50
2022-12-15T00:50:54.102Z,79.06
2022-12-15T00:53:43.220Z,79.57
2022-12-15T00:56:30.344Z,79.46
2022-12-15T00:59:16.508Z,79.54
2022-12-15T01:02:02.635Z,79.04
2022-12-15T01:04:48.444Z,79.50
2022-12-15T01:07:35.357Z,78.89
2022-12-15T01:10:22.046Z,79.35
2022-12-15T01:13:07.670Z,79.28
2022-12-15T01:15:57.665Z,79.00
2022-12-15T01:18:44.412Z,78.61
2022-12-15T01:21:17.281Z,78.98
2022-12-15T01:23:45.442Z,78.55
2022-12-15T01:26:13.730Z,78.48
2022-12-15T01:28:40.977Z,78.46
2022-12-15T01:31:12.510Z,78.71
2022-12-15T01:33:45.375Z,78.71
2022-12-15T01:36:13.823Z,78.42
2022-12-15T01:38:41.044Z,78.52
2022-12-15T01:41:12.539Z,78.64
2022-12-15T01:43:42.624Z,78.75
2022-12-15T01:46:19.170Z,78.78
2022-12-15T01:48:58.020Z,79.16
2022-12-15T01:51:39.615Z,79.03
2022-12-15T01:54:32.436Z,78.82
2022-12-15T01:57:15.605Z,78.82
2022-12-15T01:59:51.122Z,78.94
2022-12-15T02:02:22.928Z,78.79
2022-12-15T02:04:54.724Z,78.41
2022-12-15T02:07:22.454Z,78.61
2022-12-15T02:09:52.433Z,78.88
2022-12-15T02:13:08.362Z,79.03
2022-12-15T02:15:53.932Z,79.14
2022-12-15T02:18:52.192Z,79.08
2022-12-15T02:21:32.798Z,79.08
2022-12-15T02:24:53.524Z,78.80
2022-12-15T02:27:51.029Z,78.98
2022-12-15T02:31:08.849Z,79.24
2022-12-15T02:33:47.003Z,79.16
2022-12-15T02:36:35.479Z,79.21
2022-12-15T02:39:05.819Z,78.97
2022-12-15T02:41:43.169Z,79.28
2022-12-15T02:44:22.895Z,79.13
2022-12-15T02:47:05.668Z,79.26
2022-12-15T02:49:50.592Z,78.82
2022-12-15T02:52:38.725Z,79.11
2022-12-15T02:55:35.548Z,79.16
2022-12-15T02:58:10.731Z,79.38
2022-12-15T03:00:48.752Z,79.35
2022-12-15T03:03:21.291Z,78.76
2022-12-15T03:05:55.697Z,78.81
2022-12-15T03:08:26.399Z,78.87
2022-12-15T03:10:56.003Z,78.93
2022-12-15T03:13:26.256Z,78.68
2022-12-15T03:15:56.624Z,78.76
2022-12-15T03:18:25.200Z,79.15
2022-12-15T03:20:53.733Z,79.35
2022-12-15T03:23:23.497Z,79.66
2022-12-15T03:25:55.543Z,79.15
2022-12-15T03:28:25.135Z,78.92
2022-12-15T03:33:42.124Z,79.24
2022-12-15T03:36:12.940Z,78.64
2022-12-15T03:38:41.843Z,79.45
2022-12-15T03:41:09.947Z,78.85
2022-12-15T03:43:41.012Z,78.82
2022-12-15T03:46:10.889Z,78.96
2022-12-15T03:48:39.183Z,78.97
2022-12-15T03:51:10.793Z,79.19
2022-12-15T03:53:41.077Z,78.93
2022-12-15T03:56:14.822Z,78.77
2022-12-15T03:58:42.541Z,78.70
2022-12-15T04:01:32.598Z,78.96
2022-12-15T04:04:05.569Z,78.71
2022-12-15T04:06:36.108Z,78.87
2022-12-15T04:09:07.881Z,79.00
2022-12-15T04:11:35.291Z,79.13
2022-12-15T04:14:04.882Z,79.04
2022-12-15T04:16:33.604Z,78.86
2022-12-15T04:19:21.193Z,79.17
2022-12-15T04:21:51.302Z,78.76
2022-12-15T04:24:38.224Z,78.62
2022-12-15T04:27:24.074Z,78.90
2022-12-15T04:30:12.461Z,78.81
2022-12-15T04:33:02.929Z,78.94
2022-12-15T04:35:55.722Z,79.27
2022-12-15T04:38:50.088Z,79.19
2022-12-15T04:41:39.929Z,79.45
2022-12-15T04:46:59.581Z,79.27
2022-12-15T04:49:46.854Z,79.84
2022-12-15T04:52:34.965Z,79.68
2022-12-15T04:55:21.073Z,80.28
2022-12-15T04:58:07.162Z,80.17
2022-12-15T05:00:53.435Z,80.18
2022-12-15T05:03:39.496Z,80.06
2022-12-15T05:06:26.387Z,80.18
2022-12-15T05:09:13.162Z,80.45
2022-12-15T05:12:00.524Z,80.19
2022-12-15T05:14:49.514Z,79.89
2022-12-15T05:17:41.307Z,80.71
2022-12-15T05:20:29.037Z,80.37
2022-12-15T05:23:18.089Z,80.51
2022-12-15T05:26:05.905Z,80.58
2022-12-15T05:28:53.046Z,80.50
2022-12-15T05:31:39.836Z,80.37
2022-12-15T05:34:16.255Z,80.46
2022-12-15T05:36:46.477Z,80.87
2022-12-15T05:39:17.567Z,81.70
2022-12-15T05:41:47.604Z,82.44
2022-12-15T05:44:17.669Z,82.98
2022-12-15T05:46:46.475Z,82.77
2022-12-15T05:49:19.080Z,82.60
2022-12-15T05:54:34.134Z,81.44
2022-12-15T05:57:06.590Z,81.24
2022-12-15T06:00:29.446Z,81.01
2022-12-15T06:03:01.600Z,80.92
2022-12-15T06:06:32.237Z,80.69
2022-12-15T06:25:17.555Z,80.66
2022-12-15T06:27:45.971Z,80.81
2022-12-15T06:30:16.257Z,80.48
2022-12-15T06:32:43.707Z,80.64
2022-12-15T06:35:13.215Z,80.69
2022-12-15T06:37:41.653Z,80.56
2022-12-15T06:40:11.702Z,80.67
2022-12-15T06:42:40.254Z,80.77
2022-12-15T06:45:10.804Z,81.08
2022-12-15T06:47:41.242Z,80.87
2022-12-15T06:50:10.190Z,80.57
2022-12-15T06:52:42.326Z,79.96
2022-12-15T06:58:22.963Z,80.72
2022-12-15T07:00:51.327Z,80.51
2022-12-15T07:03:30.548Z,80.80
2022-12-15T07:09:23.201Z,80.46
2022-12-15T07:11:52.645Z,81.01
2022-12-15T07:14:21.826Z,80.90
2022-12-15T07:16:49.805Z,81.06
2022-12-15T07:19:21.483Z,81.04
2022-12-15T07:21:51.028Z,80.37
2022-12-15T07:24:22.654Z,80.81
2022-12-15T07:29:30.389Z,80.27
2022-12-15T07:32:03.984Z,80.34
2022-12-15T07:34:32.750Z,80.10
2022-12-15T07:37:04.178Z,80.19
2022-12-15T07:39:31.978Z,79.95
2022-12-15T07:42:02.330Z,80.15
2022-12-15T07:44:29.746Z,80.54
2022-12-15T07:47:01.706Z,80.87
2022-12-15T08:36:13.973Z,79.13
2022-12-15T08:38:46.364Z,78.86
2022-12-15T08:41:27.685Z,78.80
2022-12-15T08:43:58.775Z,78.87
2022-12-15T08:46:34.903Z,79.22
2022-12-15T08:49:05.507Z,78.65
2022-12-15T08:51:34.680Z,79.19
2022-12-15T08:54:02.707Z,78.63
2022-12-15T08:56:31.645Z,78.68
2022-12-15T08:59:02.252Z,79.59
2022-12-15T09:01:34.520Z,79.47
2022-12-15T09:04:05.172Z,79.31
2022-12-15T09:06:37.575Z,79.22
2022-12-15T09:09:12.915Z,79.51
2022-12-15T09:11:42.869Z,79.10
2022-12-15T09:14:14.586Z,79.53
2022-12-15T09:16:43.828Z,79.68
2022-12-15T09:19:12.309Z,79.43
2022-12-15T09:21:45.430Z,78.95
2022-12-15T09:24:23.260Z,79.94
2022-12-15T09:26:57.654Z,79.22
2022-12-15T09:29:26.976Z,79.43
2022-12-15T09:32:00.669Z,79.48
2022-12-15T09:34:30.418Z,78.80
2022-12-15T09:36:58.685Z,78.46
2022-12-15T09:39:27.285Z,78.47
2022-12-15T09:42:00.889Z,79.22
2022-12-15T09:44:30.906Z,80.34
2022-12-15T09:47:16.621Z,80.01
2022-12-15T09:50:06.462Z,79.39
2022-12-15T09:52:50.596Z,79.08
2022-12-15T09:55:46.747Z,78.16
2022-12-15T09:59:10.771Z,78.47
2022-12-15T10:02:13.307Z,79.16
2022-12-15T10:05:29.911Z,78.95
2022-12-15T10:08:05.690Z,78.04
2022-12-15T10:10:46.871Z,78.26
2022-12-15T10:13:25.422Z,78.09
2022-12-15T10:16:03.624Z,77.63
2022-12-15T10:18:50.361Z,78.57
2022-12-15T10:21:17.772Z,78.31
2022-12-15T10:23:45.941Z,78.58
2022-12-15T10:26:27.136Z,77.44
2022-12-15T10:29:15.795Z,77.02
2022-12-15T10:31:51.687Z,77.36
2022-12-15T10:34:28.550Z,77.00
2022-12-15T10:36:57.598Z,77.50
2022-12-15T10:39:39.883Z,78.04
2022-12-15T10:42:28.672Z,78.44
2022-12-15T10:45:00.272Z,79.09
2022-12-15T10:47:34.933Z,79.22
2022-12-15T10:50:26.884Z,79.01
2022-12-15T10:52:54.189Z,77.84
2022-12-15T10:55:43.813Z,79.01
2022-12-15T10:58:24.972Z,79.12
2022-12-15T11:01:17.118Z,79.13
2022-12-15T11:03:46.019Z,78.62
2022-12-15T11:06:20.019Z,77.96
2022-12-15T11:08:48.498Z,78.15
2022-12-15T11:11:50.335Z,77.99
2022-12-15T11:14:27.449Z,78.42
2022-12-15T11:16:58.067Z,78.73
2022-12-15T11:19:41.215Z,78.15
2022-12-15T11:22:28.584Z,77.42
2022-12-15T11:25:21.685Z,77.52
2022-12-15T11:27:51.706Z,77.31
2022-12-15T11:30:22.465Z,77.45
2022-12-15T11:32:55.777Z,77.16
2022-12-15T11:35:47.099Z,76.92
2022-12-15T11:38:33.506Z,76.75
2022-12-15T11:41:28.707Z,76.42
2022-12-15T11:44:16.409Z,76.86
2022-12-15T11:47:27.817Z,77.00
2022-12-15T11:50:27.531Z,76.82
2022-12-15T11:53:25.194Z,75.93
2022-12-15T11:55:58.492Z,76.76
2022-12-15T11:58:49.318Z,76.20
2022-12-15T12:02:00.716Z,76.98
2022-12-15T12:04:53.801Z,76.61
2022-12-15T12:07:58.615Z,75.73
2022-12-15T12:11:18.397Z,77.08
2022-12-15T15:44:16.951Z,79.57
2022-12-15T16:12:01.833Z,78.87
2022-12-15T16:25:50.504Z,79.04
2022-12-15T16:28:23.539Z,79.23
2022-12-15T16:30:51.560Z,79.07
2022-12-15T16:36:18.885Z,79.51
2022-12-15T16:38:51.799Z,79.20
2022-12-15T16:41:33.515Z,79.78
2022-12-15T16:46:48.873Z,79.37
2022-12-15T17:11:23.960Z,80.01
2022-12-15T17:22:41.117Z,80.56
2022-12-15T18:42:20.831Z,80.67
2022-12-15T18:47:55.202Z,80.97
2022-12-15T18:50:28.152Z,80.97
2022-12-15T18:53:58.777Z,80.74
2022-12-15T23:58:05.892Z,83.47
